createdAt,value
2022-08-30T00:02:05.788Z,99.90
2022-08-30T00:04:32.729Z,99.90
2022-08-30T00:06:59.976Z,99.90
2022-08-30T00:09:26.722Z,99.90
2022-08-30T00:11:53.369Z,99.90
2022-08-30T00:14:20.370Z,99.90
2022-08-30T00:16:47.227Z,99.90
2022-08-30T00:19:14.368Z,99.90
2022-08-30T00:21:41.245Z,99.90
2022-08-30T00:24:08.538Z,99.90
2022-08-30T00:26:35.301Z,99.90
2022-08-30T00:29:01.961Z,99.90
2022-08-30T00:31:28.679Z,99.90
2022-08-30T00:33:55.398Z,99.90
2022-08-30T00:36:22.063Z,99.90
2022-08-30T00:38:48.778Z,99.90
2022-08-30T00:41:15.499Z,99.90
2022-08-30T00:43:42.295Z,99.90
2022-08-30T00:46:10.278Z,99.90
2022-08-30T00:48:41.194Z,99.90
2022-08-30T00:51:10.562Z,99.90
2022-08-30T00:53:40.476Z,99.90
2022-08-30T00:56:07.709Z,99.90
2022-08-30T00:58:38.370Z,99.90
2022-08-30T01:01:07.992Z,99.90
2022-08-30T01:03:36.748Z,99.90
2022-08-30T01:06:05.152Z,99.90
2022-08-30T01:08:31.963Z,99.90
2022-08-30T01:10:59.426Z,99.90
2022-08-30T01:13:29.289Z,99.90
2022-08-30T01:15:56.140Z,99.90
2022-08-30T01:18:23.981Z,99.90
2022-08-30T01:21:17.177Z,99.90
2022-08-30T01:23:46.108Z,99.90
2022-08-30T01:26:15.781Z,99.90
2022-08-30T01:28:46.470Z,99.90
2022-08-30T01:31:13.323Z,99.90
2022-08-30T01:33:40.571Z,99.90
2022-08-30T01:36:12.365Z,99.90
2022-08-30T01:38:48.474Z,99.90
2022-08-30T01:41:28.961Z,99.90
2022-08-30T01:43:57.847Z,99.90
2022-08-30T01:46:28.770Z,99.90
2022-08-30T01:48:57.258Z,99.90
2022-08-30T01:51:27.066Z,99.90
2022-08-30T01:53:54.705Z,99.90
2022-08-30T01:56:22.752Z,99.90
2022-08-30T01:58:50.300Z,99.90
2022-08-30T02:01:19.755Z,99.90
2022-08-30T02:03:47.024Z,99.90
2022-08-30T02:06:17.320Z,99.90
2022-08-30T02:08:45.095Z,99.90
2022-08-30T02:11:12.442Z,99.90
2022-08-30T02:13:40.401Z,99.90
2022-08-30T02:16:09.200Z,99.90
2022-08-30T02:18:38.495Z,99.90
2022-08-30T02:21:06.243Z,99.90
2022-08-30T02:23:33.026Z,99.90
2022-08-30T02:25:59.642Z,99.90
2022-08-30T02:28:26.416Z,99.90
2022-08-30T02:30:53.692Z,99.90
2022-08-30T02:33:20.613Z,99.90
2022-08-30T02:35:47.481Z,99.90
2022-08-30T02:38:14.718Z,99.90
2022-08-30T02:40:41.879Z,99.90
2022-08-30T02:43:08.746Z,99.90
2022-08-30T02:45:35.574Z,99.90
2022-08-30T02:48:02.506Z,99.90
2022-08-30T02:50:29.418Z,99.90
2022-08-30T02:52:56.184Z,99.90
2022-08-30T02:55:23.276Z,99.90
2022-08-30T02:57:50.450Z,99.90
2022-08-30T03:00:19.784Z,99.90
2022-08-30T03:02:47.117Z,99.90
2022-08-30T03:05:15.440Z,99.90
2022-08-30T03:07:43.587Z,99.90
2022-08-30T03:10:10.916Z,99.90
2022-08-30T03:12:38.277Z,99.90
2022-08-30T03:15:06.773Z,99.90
2022-08-30T03:17:33.683Z,99.90
2022-08-30T03:20:02.149Z,99.90
2022-08-30T03:22:29.568Z,99.90
2022-08-30T03:25:01.299Z,99.90
2022-08-30T03:27:29.492Z,99.90
2022-08-30T03:29:56.445Z,99.90
2022-08-30T03:32:24.033Z,99.90
2022-08-30T03:34:50.893Z,99.90
2022-08-30T03:37:18.131Z,99.90
2022-08-30T03:39:45.486Z,99.90
2022-08-30T03:42:12.765Z,99.90
2022-08-30T03:44:39.822Z,99.90
2022-08-30T03:47:08.389Z,99.90
2022-08-30T03:49:35.424Z,99.90
2022-08-30T03:52:02.494Z,99.90
2022-08-30T03:54:29.584Z,99.90
2022-08-30T03:56:56.477Z,99.90
2022-08-30T03:59:23.426Z,99.90
2022-08-30T04:01:50.343Z,99.90
2022-08-30T04:04:20.913Z,99.90
2022-08-30T04:06:49.024Z,99.90
2022-08-30T04:09:16.454Z,99.90
2022-08-30T04:11:43.403Z,99.90
2022-08-30T04:14:10.495Z,99.90
2022-08-30T04:16:37.393Z,99.90
2022-08-30T04:19:04.450Z,99.90
2022-08-30T04:21:31.692Z,99.90
2022-08-30T04:23:58.944Z,99.90
2022-08-30T04:26:29.274Z,99.90
2022-08-30T04:28:56.780Z,99.90
2022-08-30T04:31:24.212Z,99.90
2022-08-30T04:33:51.097Z,99.90
2022-08-30T04:36:17.754Z,99.90
2022-08-30T04:38:44.636Z,99.90
2022-08-30T04:41:13.107Z,99.90
2022-08-30T04:43:40.115Z,99.90
2022-08-30T04:46:08.254Z,99.90
2022-08-30T04:48:37.126Z,99.90
2022-08-30T04:51:06.606Z,99.90
2022-08-30T04:53:33.696Z,99.90
2022-08-30T04:56:01.095Z,99.90
2022-08-30T04:58:28.023Z,99.90
2022-08-30T05:00:55.036Z,99.90
2022-08-30T05:03:21.878Z,99.90
2022-08-30T05:05:49.517Z,99.90
2022-08-30T05:08:23.226Z,99.90
2022-08-30T05:10:52.640Z,99.90
2022-08-30T05:13:21.331Z,99.90
2022-08-30T05:16:04.015Z,99.90
2022-08-30T05:18:30.985Z,99.90
2022-08-30T05:21:27.237Z,99.90
2022-08-30T05:23:56.482Z,99.90
2022-08-30T05:26:26.762Z,99.90
2022-08-30T05:28:53.772Z,99.90
2022-08-30T05:31:27.188Z,99.90
2022-08-30T05:33:55.207Z,99.90
2022-08-30T05:36:26.050Z,99.90
2022-08-30T05:38:53.936Z,99.90
2022-08-30T05:41:22.120Z,99.90
2022-08-30T05:43:49.196Z,99.90
2022-08-30T05:46:19.845Z,99.90
2022-08-30T05:48:47.044Z,99.90
2022-08-30T05:51:19.959Z,99.90
2022-08-30T05:53:47.937Z,99.90
2022-08-30T05:56:17.761Z,99.90
2022-08-30T05:58:45.018Z,99.90
2022-08-30T06:01:29.759Z,99.90
2022-08-30T06:04:03.012Z,99.90
2022-08-30T06:06:32.972Z,99.90
2022-08-30T06:09:00.255Z,99.90
2022-08-30T06:11:28.211Z,99.90
2022-08-30T06:13:55.667Z,99.90
2022-08-30T06:16:25.111Z,99.90
2022-08-30T06:18:53.975Z,99.90
2022-08-30T06:21:26.957Z,99.90
2022-08-30T06:23:54.298Z,99.90
2022-08-30T06:26:21.616Z,99.90
2022-08-30T06:28:49.207Z,99.90
2022-08-30T06:31:18.316Z,99.90
2022-08-30T06:33:46.004Z,99.90
2022-08-30T06:36:17.842Z,99.90
2022-08-30T06:38:45.258Z,99.90
2022-08-30T06:41:15.517Z,99.90
2022-08-30T06:43:48.173Z,99.90
2022-08-30T06:46:22.178Z,99.90
2022-08-30T06:48:49.058Z,99.90
2022-08-30T06:51:19.755Z,99.90
2022-08-30T06:53:46.739Z,99.90
2022-08-30T06:56:16.583Z,99.90
2022-08-30T06:58:44.504Z,99.90
2022-08-30T07:01:21.647Z,99.90
2022-08-30T07:03:48.594Z,99.90
2022-08-30T07:06:15.968Z,99.90
2022-08-30T07:08:46.767Z,99.90
2022-08-30T07:11:13.613Z,99.90
2022-08-30T07:13:40.457Z,99.90
2022-08-30T07:16:14.700Z,99.90
2022-08-30T07:18:50.527Z,99.90
2022-08-30T07:21:21.295Z,99.90
2022-08-30T07:23:53.567Z,99.90
2022-08-30T07:26:27.244Z,99.90
2022-08-30T07:28:56.211Z,99.90
2022-08-30T07:31:24.660Z,99.90
2022-08-30T07:33:52.452Z,99.90
2022-08-30T07:36:21.732Z,99.90
2022-08-30T07:38:50.910Z,99.90
2022-08-30T07:41:21.192Z,99.90
2022-08-30T07:43:48.069Z,99.90
2022-08-30T07:46:16.117Z,99.90
2022-08-30T07:48:44.184Z,99.90
2022-08-30T07:51:19.945Z,99.90
2022-08-30T07:53:46.845Z,99.90
2022-08-30T07:56:14.180Z,99.90
2022-08-30T07:58:41.233Z,99.90
2022-08-30T08:01:09.835Z,99.90
2022-08-30T08:03:39.034Z,99.90
2022-08-30T08:06:07.625Z,99.90
2022-08-30T08:08:35.951Z,99.90
2022-08-30T08:11:16.367Z,99.90
2022-08-30T08:13:52.631Z,99.90
2022-08-30T08:16:23.681Z,99.80
2022-08-30T08:18:51.930Z,99.80
2022-08-30T08:21:18.954Z,99.30
2022-08-30T08:23:46.074Z,97.50
2022-08-30T08:26:12.944Z,94.00
2022-08-30T08:28:39.710Z,94.70
2022-08-30T08:31:22.032Z,92.00
2022-08-30T08:33:56.674Z,93.00
2022-08-30T08:36:24.993Z,92.90
2022-08-30T08:38:54.354Z,91.80
2022-08-30T08:41:50.558Z,90.60
2022-08-30T08:44:18.935Z,92.10
2022-08-30T08:47:01.175Z,90.30
2022-08-30T08:49:32.250Z,91.70
2022-08-30T08:52:18.808Z,93.30
2022-08-30T08:54:59.206Z,91.40
2022-08-30T08:57:32.402Z,92.80
2022-08-30T09:00:00.673Z,95.70
2022-08-30T09:02:36.979Z,93.80
2022-08-30T09:05:09.142Z,92.00
2022-08-30T09:07:42.230Z,93.70
2022-08-30T09:10:11.273Z,94.60
2022-08-30T09:12:40.959Z,93.80
2022-08-30T09:15:22.588Z,93.70
2022-08-30T09:17:51.782Z,93.90
2022-08-30T09:20:35.829Z,91.00
2022-08-30T09:23:17.633Z,87.90
2022-08-30T09:25:55.833Z,90.20
2022-08-30T09:28:49.289Z,88.90
2022-08-30T09:31:27.274Z,90.30
2022-08-30T09:34:10.129Z,85.00
2022-08-30T09:36:45.790Z,85.40
2022-08-30T09:39:21.362Z,84.70
2022-08-30T09:42:10.954Z,86.00
2022-08-30T09:44:39.977Z,86.00
2022-08-30T09:47:24.035Z,83.50
2022-08-30T09:50:07.578Z,82.60
2022-08-30T09:52:44.631Z,82.40
2022-08-30T09:55:42.382Z,81.90
2022-08-30T09:58:29.355Z,86.80
2022-08-30T10:01:27.099Z,82.50
2022-08-30T10:04:18.475Z,84.30
2022-08-30T10:07:01.312Z,85.40
2022-08-30T10:09:45.283Z,87.20
2022-08-30T10:12:14.056Z,88.40
2022-08-30T10:15:00.242Z,90.70
2022-08-30T10:17:52.409Z,88.50
2022-08-30T10:20:46.436Z,90.40
2022-08-30T10:23:26.324Z,93.10
2022-08-30T10:26:00.661Z,92.60
2022-08-30T10:28:37.022Z,94.40
2022-08-30T10:31:20.528Z,99.60
2022-08-30T10:33:58.155Z,98.50
2022-08-30T10:36:36.555Z,97.70
2022-08-30T10:39:06.110Z,95.00
2022-08-30T10:42:09.824Z,95.30
2022-08-30T10:44:49.288Z,95.70
2022-08-30T10:47:36.844Z,95.90
2022-08-30T10:50:15.533Z,97.30
2022-08-30T10:52:59.141Z,98.60
2022-08-30T10:55:34.525Z,96.80
2022-08-30T10:58:06.194Z,93.20
2022-08-30T11:00:46.081Z,92.50
2022-08-30T11:03:34.974Z,89.20
2022-08-30T11:06:25.200Z,94.30
2022-08-30T11:09:03.098Z,85.80
2022-08-30T11:11:50.474Z,81.70
2022-08-30T11:14:25.591Z,82.20
2022-08-30T11:16:57.500Z,78.80
2022-08-30T11:19:47.105Z,72.70
2022-08-30T11:22:23.700Z,71.60
2022-08-30T11:25:16.069Z,68.00
2022-08-30T11:27:54.308Z,68.10
2022-08-30T11:30:26.986Z,63.40
2022-08-30T11:33:07.868Z,65.50
2022-08-30T11:35:48.349Z,67.70
2022-08-30T11:38:20.688Z,66.20
2022-08-30T11:40:52.469Z,65.90
2022-08-30T11:43:43.824Z,65.60
2022-08-30T11:46:15.134Z,64.50
2022-08-30T11:49:03.586Z,65.10
2022-08-30T11:52:23.629Z,62.10
2022-08-30T11:55:23.071Z,65.90
2022-08-30T11:58:11.509Z,68.60
2022-08-30T12:00:45.674Z,65.40
2022-08-30T12:03:17.301Z,64.60
2022-08-30T12:05:51.950Z,63.10
2022-08-30T12:08:48.050Z,63.00
2022-08-30T12:11:16.437Z,60.60
2022-08-30T12:13:45.842Z,60.00
2022-08-30T12:16:22.199Z,58.70
2022-08-30T12:18:57.733Z,58.60
2022-08-30T12:21:43.691Z,57.10
2022-08-30T12:24:40.783Z,58.80
2022-08-30T12:27:24.720Z,59.00
2022-08-30T12:30:00.042Z,59.80
2022-08-30T12:32:31.529Z,62.30
2022-08-30T12:35:04.681Z,60.40
2022-08-30T12:37:37.802Z,63.30
2022-08-30T12:40:15.652Z,63.90
2022-08-30T12:42:54.120Z,60.60
2022-08-30T12:45:31.024Z,60.80
2022-08-30T12:48:07.175Z,61.50
2022-08-30T12:50:44.108Z,61.50
2022-08-30T12:53:14.696Z,60.60
2022-08-30T12:55:57.317Z,63.60
2022-08-30T12:58:50.884Z,63.10
2022-08-30T13:01:28.690Z,65.20
2022-08-30T13:03:59.771Z,64.50
2022-08-30T13:06:59.824Z,61.70
2022-08-30T13:09:32.227Z,60.30
2022-08-30T13:12:21.053Z,61.70
2022-08-30T13:14:50.458Z,62.00
2022-08-30T13:17:25.261Z,60.90
2022-08-30T13:20:21.351Z,60.60
2022-08-30T13:23:08.964Z,59.50
2022-08-30T13:25:39.879Z,57.20
2022-08-30T13:28:08.887Z,58.50
2022-08-30T13:30:38.986Z,56.00
2022-08-30T13:33:07.543Z,56.40
2022-08-30T13:35:35.789Z,57.60
2022-08-30T13:38:04.780Z,57.20
2022-08-30T13:40:33.059Z,58.20
2022-08-30T13:43:02.433Z,58.60
2022-08-30T13:45:46.195Z,59.30
2022-08-30T13:48:16.358Z,59.00
2022-08-30T13:50:46.118Z,55.80
2022-08-30T13:53:16.113Z,57.10
2022-08-30T13:55:44.864Z,57.60
2022-08-30T13:58:13.792Z,55.90
2022-08-30T14:00:42.318Z,55.70
2022-08-30T14:03:12.146Z,55.50
2022-08-30T14:05:49.824Z,56.20
2022-08-30T14:11:13.133Z,55.60
2022-08-30T14:16:32.770Z,55.30
2022-08-30T14:19:01.470Z,55.50
2022-08-30T14:21:29.587Z,54.70
2022-08-30T14:23:59.746Z,55.40
2022-08-30T14:26:33.236Z,53.90
2022-08-30T14:29:23.340Z,55.50
2022-08-30T14:31:53.491Z,54.40
2022-08-30T14:34:23.290Z,54.60
2022-08-30T14:36:51.653Z,54.10
2022-08-30T14:39:21.336Z,54.00
2022-08-30T14:41:52.770Z,55.30
2022-08-30T14:44:23.195Z,56.20
2022-08-30T14:46:52.357Z,54.70
2022-08-30T14:49:22.127Z,54.40
2022-08-30T14:51:51.951Z,54.70
2022-08-30T14:54:25.390Z,55.10
2022-08-30T14:56:54.800Z,54.10
2022-08-30T14:59:24.536Z,54.80
2022-08-30T15:01:52.714Z,53.60
2022-08-30T15:04:21.704Z,55.00
2022-08-30T15:06:50.823Z,55.40
2022-08-30T15:09:23.156Z,54.80
2022-08-30T15:11:58.636Z,54.10
2022-08-30T15:14:28.440Z,54.40
2022-08-30T15:16:58.858Z,55.50
2022-08-30T15:19:27.301Z,54.50
2022-08-30T15:21:55.517Z,54.10
2022-08-30T15:24:29.638Z,54.00
2022-08-30T15:26:59.827Z,52.10
2022-08-30T15:29:28.304Z,54.00
2022-08-30T15:31:59.759Z,54.10
2022-08-30T15:34:28.289Z,54.20
2022-08-30T15:36:56.580Z,54.50
2022-08-30T15:39:25.536Z,55.70
2022-08-30T15:41:58.436Z,55.80
2022-08-30T15:44:29.255Z,56.40
2022-08-30T15:46:57.561Z,55.60
2022-08-30T15:49:26.270Z,55.50
2022-08-30T15:51:54.761Z,54.80
2022-08-30T15:54:24.405Z,56.00
2022-08-30T15:56:59.840Z,56.30
2022-08-30T15:59:29.874Z,56.90
2022-08-30T16:01:58.467Z,56.20
2022-08-30T16:04:27.576Z,56.40
2022-08-30T16:06:55.755Z,57.00
2022-08-30T16:09:25.407Z,57.70
2022-08-30T16:11:59.016Z,59.70
2022-08-30T16:14:27.962Z,60.80
2022-08-30T16:16:56.426Z,62.70
2022-08-30T16:19:25.265Z,63.50
2022-08-30T16:21:53.693Z,62.40
2022-08-30T16:24:23.703Z,62.30
2022-08-30T16:26:52.276Z,63.40
2022-08-30T16:29:21.287Z,64.20
2022-08-30T16:31:49.909Z,64.80
2022-08-30T16:34:20.266Z,66.60
2022-08-30T16:36:49.152Z,68.00
2022-08-30T16:39:17.743Z,71.90
2022-08-30T16:41:46.955Z,77.40
2022-08-30T16:44:17.966Z,83.50
2022-08-30T16:46:52.723Z,91.20
2022-08-30T16:49:22.983Z,95.80
2022-08-30T16:51:52.515Z,98.00
2022-08-30T16:54:22.261Z,98.40
2022-08-30T16:56:51.263Z,99.90
2022-08-30T16:59:20.361Z,99.90
2022-08-30T17:01:49.396Z,99.90
2022-08-30T17:04:19.522Z,99.90
2022-08-30T17:06:50.262Z,99.90
2022-08-30T17:09:20.346Z,99.90
2022-08-30T17:11:49.235Z,99.90
2022-08-30T17:14:28.029Z,99.90
2022-08-30T17:17:00.456Z,99.90
2022-08-30T17:19:30.451Z,99.90
2022-08-30T17:22:01.183Z,99.90
2022-08-30T17:24:29.982Z,99.90
2022-08-30T17:26:59.819Z,99.90
2022-08-30T17:29:28.679Z,99.90
2022-08-30T17:31:57.290Z,99.90
2022-08-30T17:34:27.411Z,99.90
2022-08-30T17:36:58.712Z,99.90
2022-08-30T17:39:28.940Z,99.90
2022-08-30T17:42:00.893Z,99.90
2022-08-30T17:44:32.400Z,99.90
2022-08-30T17:47:02.371Z,99.90
2022-08-30T17:49:31.703Z,99.90
2022-08-30T17:52:02.098Z,99.90
2022-08-30T17:54:33.168Z,99.90
2022-08-30T17:57:05.431Z,99.90
2022-08-30T17:59:36.860Z,99.90
2022-08-30T18:02:06.355Z,99.90
2022-08-30T18:04:34.786Z,99.90
2022-08-30T18:07:03.941Z,99.90
2022-08-30T18:09:34.146Z,99.90
2022-08-30T18:12:03.097Z,99.90
2022-08-30T18:14:31.637Z,99.90
2022-08-30T18:17:00.395Z,99.90
2022-08-30T18:19:30.835Z,99.90
2022-08-30T18:22:03.365Z,99.90
2022-08-30T18:24:32.117Z,99.90
2022-08-30T18:27:01.463Z,99.90
2022-08-30T18:29:32.226Z,99.90
2022-08-30T18:32:02.597Z,99.90
2022-08-30T18:34:31.827Z,99.90
2022-08-30T18:37:01.590Z,99.90
2022-08-30T18:39:34.554Z,99.90
2022-08-30T18:42:07.341Z,99.90
2022-08-30T18:44:38.922Z,99.90
2022-08-30T18:47:07.808Z,99.90
2022-08-30T18:49:37.702Z,99.90
2022-08-30T18:52:08.951Z,99.90
2022-08-30T18:54:46.278Z,99.90
2022-08-30T18:57:20.875Z,99.90
2022-08-30T18:59:50.706Z,99.90
2022-08-30T19:02:20.585Z,99.90
2022-08-30T19:04:49.493Z,99.90
2022-08-30T19:07:19.459Z,99.90
2022-08-30T19:09:47.784Z,99.90
2022-08-30T19:12:16.572Z,99.90
2022-08-30T19:14:44.555Z,99.90
2022-08-30T19:17:12.817Z,99.90
2022-08-30T19:19:48.457Z,99.90
2022-08-30T19:22:26.761Z,99.90
2022-08-30T19:24:58.660Z,99.90
2022-08-30T19:27:38.088Z,99.90
2022-08-30T19:30:11.958Z,99.90
2022-08-30T19:32:39.898Z,99.90
2022-08-30T19:35:09.922Z,99.90
2022-08-30T19:37:41.894Z,99.90
2022-08-30T19:40:14.845Z,99.90
2022-08-30T19:42:46.145Z,99.90
2022-08-30T19:45:18.509Z,99.90
2022-08-30T19:47:47.300Z,99.90
2022-08-30T19:50:16.125Z,99.90
2022-08-30T19:52:51.073Z,99.90
2022-08-30T19:55:23.877Z,99.90
2022-08-30T19:57:57.413Z,99.90
2022-08-30T20:00:25.676Z,99.90
2022-08-30T20:02:54.580Z,99.90
2022-08-30T20:05:23.885Z,99.90
2022-08-30T20:07:51.890Z,99.90
2022-08-30T20:10:22.035Z,99.90
2022-08-30T20:12:54.995Z,99.90
2022-08-30T20:15:23.655Z,99.90
2022-08-30T20:18:13.566Z,99.90
2022-08-30T20:20:40.366Z,99.90
2022-08-30T20:23:08.558Z,99.90
2022-08-30T20:25:38.216Z,99.90
2022-08-30T20:28:07.185Z,99.90
2022-08-30T20:30:35.447Z,99.90
2022-08-30T20:33:08.567Z,99.90
2022-08-30T20:35:37.405Z,99.90
2022-08-30T20:38:07.054Z,99.90
2022-08-30T20:40:39.749Z,99.90
2022-08-30T20:43:08.852Z,99.90
2022-08-30T20:45:37.060Z,99.90
2022-08-30T20:48:06.442Z,99.90
2022-08-30T20:50:34.577Z,99.90
2022-08-30T20:53:03.157Z,99.90
2022-08-30T20:55:31.056Z,99.90
2022-08-30T20:57:59.155Z,99.90
2022-08-30T21:00:28.120Z,99.90
2022-08-30T21:02:56.605Z,99.90
2022-08-30T21:07:37.154Z,99.90
2022-08-30T21:10:06.524Z,99.90
2022-08-30T21:12:35.013Z,99.90
2022-08-30T21:15:20.794Z,99.90
2022-08-30T21:17:51.525Z,99.90
2022-08-30T21:20:19.786Z,99.90
2022-08-30T21:22:47.937Z,99.90
2022-08-30T21:25:16.780Z,99.90
2022-08-30T21:27:45.264Z,99.90
2022-08-30T21:30:14.842Z,99.90
2022-08-30T21:32:43.578Z,99.90
2022-08-30T21:35:30.064Z,99.90
2022-08-30T21:37:58.352Z,99.90
2022-08-30T21:40:26.227Z,99.90
2022-08-30T21:42:54.885Z,99.90
2022-08-30T21:45:23.593Z,99.90
2022-08-30T21:47:51.838Z,99.90
2022-08-30T21:50:20.312Z,99.90
2022-08-30T21:52:49.035Z,99.90
2022-08-30T21:55:17.242Z,99.90
2022-08-30T21:57:45.451Z,99.90
2022-08-30T22:00:19.456Z,99.90
2022-08-30T22:02:53.271Z,99.90
2022-08-30T22:05:21.981Z,99.90
2022-08-30T22:07:50.235Z,99.90
2022-08-30T22:10:21.002Z,99.90
2022-08-30T22:12:49.646Z,99.90
2022-08-30T22:15:18.576Z,99.90
2022-08-30T22:17:46.812Z,99.90
2022-08-30T22:20:18.433Z,99.90
2022-08-30T22:22:47.069Z,99.90
2022-08-30T22:25:15.318Z,99.90
2022-08-30T22:27:43.235Z,99.90
2022-08-30T22:30:11.615Z,99.90
2022-08-30T22:32:40.793Z,99.90
2022-08-30T22:35:09.103Z,99.90
2022-08-30T22:37:36.817Z,99.90
2022-08-30T22:40:05.549Z,99.90
2022-08-30T22:42:33.682Z,99.90
2022-08-30T22:45:01.761Z,99.90
2022-08-30T22:47:31.486Z,99.90
2022-08-30T22:50:00.265Z,99.90
2022-08-30T22:52:28.353Z,99.90
2022-08-30T22:54:56.800Z,99.90
2022-08-30T22:57:25.012Z,99.90
2022-08-30T22:59:52.775Z,99.90
2022-08-30T23:02:21.219Z,99.90
2022-08-30T23:04:49.818Z,99.90
2022-08-30T23:07:17.855Z,99.90
2022-08-30T23:09:46.153Z,99.90
2022-08-30T23:12:14.118Z,99.90
2022-08-30T23:14:42.497Z,99.90
2022-08-30T23:17:10.373Z,99.90
2022-08-30T23:19:38.247Z,99.90
2022-08-30T23:22:06.848Z,99.90
2022-08-30T23:24:53.435Z,99.90
2022-08-30T23:27:42.619Z,99.90
2022-08-30T23:30:29.939Z,99.90
2022-08-30T23:33:16.961Z,99.90
2022-08-30T23:36:03.530Z,99.90
2022-08-30T23:38:49.947Z,99.90
2022-08-30T23:41:36.345Z,99.90
2022-08-30T23:44:23.182Z,99.90
2022-08-30T23:47:10.099Z,99.90
2022-08-30T23:49:56.961Z,99.90
2022-08-30T23:52:43.311Z,99.90
2022-08-30T23:55:30.195Z,99.90
2022-08-30T23:58:16.726Z,99.90
